Bunker Hill, Illinois
Current Conditions -  °F | °C
As of 4:55 AM on Friday 19 Dec 2014 (Local Time) from KALN Reporting Station
Overcast Overcast  
Wind Chill: 31°   Ceiling: 3600
Heat Index: 31°   Visibility: 7mi
Dew Point: 28°   Wind: 0mph
Humidity: 87%   Direction: NA
Pressure: 30.29"   Gusts: NA
Location:  39.04°N, 89.95°W
Report Text: KALN 191055Z AUTO 00000KT 7SM OVC036 M01/M02 A3029 RMK AO2 T10061025
Loading
Personal Weather Stations






























Interactive Weather Map New forecast layout! Learn more

10-Day Weather Forecast

Advertisements
Track Severe Weather on mobile